Time;durP1;ratioP1;P1;durP2;ratioP2;P2;SDS_P1;SDS_P2;PMS_P1;PMS_P2;Temp;Humidity;BMP_temperature;BMP_pressure;BME280_temperature;BME280_humidity;BME280_pressure;Samples;Min_cycle;Max_cycle;Signal;HPM_P1;HPM_P2
2022/07/28 00:01:12;;;;;;;0.60;0.20;;;18.50;99.90;;;;;;4994466;28;20442;-71
2022/07/28 00:03:40;;;;;;;0.60;0.10;;;18.50;99.90;;;;;;4994000;28;20438;-71
2022/07/28 00:06:08;;;;;;;0.60;0.10;;;18.40;99.90;;;;;;4993145;28;20445;-71
2022/07/28 00:08:37;;;;;;;0.60;0.20;;;18.50;99.90;;;;;;4992260;28;20449;-71
2022/07/28 00:11:05;;;;;;;0.80;0.20;;;18.40;99.90;;;;;;4993011;28;20449;-71
2022/07/28 00:13:33;;;;;;;0.60;0.10;;;18.40;99.90;;;;;;4992432;28;20480;-72
2022/07/28 00:16:01;;;;;;;0.60;0.10;;;18.40;99.90;;;;;;4992890;28;20449;-72
2022/07/28 00:18:29;;;;;;;0.90;0.40;;;18.30;99.90;;;;;;4992732;28;20445;-70
2022/07/28 00:20:57;;;;;;;0.60;0.13;;;18.30;99.90;;;;;;4992588;28;20822;-71
2022/07/28 00:23:25;;;;;;;0.60;0.10;;;18.30;99.90;;;;;;4992637;28;20487;-70
2022/07/28 00:26:09;;;;;;;0.60;0.10;;;18.20;99.90;;;;;;4993952;28;20453;-71
2022/07/28 00:28:37;;;;;;;0.60;0.13;;;18.10;99.90;;;;;;4995410;28;20544;-70
2022/07/28 00:31:05;;;;;;;1.33;0.87;;;18.10;99.90;;;;;;4995143;28;20461;-71
2022/07/28 00:33:40;;;;;;;0.60;0.10;;;18.10;99.90;;;;;;4992192;28;21009;-71
2022/07/28 00:36:10;;;;;;;0.60;0.10;;;18.10;99.90;;;;;;4992939;28;20475;-71
2022/07/28 00:38:39;;;;;;;0.60;0.10;;;17.90;99.90;;;;;;4992911;28;20460;-71
2022/07/28 00:41:11;;;;;;;0.60;0.10;;;17.90;99.90;;;;;;4992831;28;20449;-70
2022/07/28 00:43:41;;;;;;;0.60;0.10;;;17.90;99.90;;;;;;4992712;28;20512;-71
2022/07/28 00:46:09;;;;;;;0.60;0.10;;;17.90;99.90;;;;;;4992451;28;20473;-70
2022/07/28 00:48:38;;;;;;;0.60;0.20;;;17.90;99.90;;;;;;4992687;28;20981;-71
2022/07/28 00:51:07;;;;;;;0.60;0.10;;;17.80;99.90;;;;;;4992606;28;20442;-71
2022/07/28 00:53:36;;;;;;;0.60;0.13;;;17.80;99.90;;;;;;4992442;28;20489;-72
2022/07/28 00:56:05;;;;;;;0.60;0.10;;;17.80;99.90;;;;;;4992454;28;20447;-70
2022/07/28 00:58:36;;;;;;;0.60;0.20;;;17.70;99.90;;;;;;4992105;28;21036;-70
2022/07/28 01:01:04;;;;;;;0.60;0.20;;;17.70;99.90;;;;;;4992463;28;20453;-71
2022/07/28 01:03:33;;;;;;;0.60;0.10;;;17.70;99.90;;;;;;4992296;28;20452;-71
2022/07/28 01:06:10;;;;;;;0.60;0.10;;;17.60;99.90;;;;;;4992266;28;20460;-70
2022/07/28 01:08:52;;;;;;;0.60;0.10;;;17.70;99.90;;;;;;4992326;28;20509;-71
2022/07/28 01:11:29;;;;;;;0.60;0.10;;;17.60;99.90;;;;;;4990303;28;20577;-70
2022/07/28 01:14:09;;;;;;;0.60;0.10;;;17.60;99.90;;;;;;4991562;28;20480;-70
2022/07/28 01:16:45;;;;;;;0.60;0.10;;;17.60;99.90;;;;;;4990353;28;20456;-72
2022/07/28 01:19:33;;;;;;;0.60;0.10;;;17.60;99.90;;;;;;4992219;28;20449;-70
2022/07/28 01:22:03;;;;;;;0.60;0.10;;;17.60;99.90;;;;;;4995273;28;20848;-73
2022/07/28 01:24:39;;;;;;;0.60;0.10;;;17.60;99.90;;;;;;4996666;28;20524;-72
2022/07/28 01:27:10;;;;;;;0.60;0.10;;;17.60;99.90;;;;;;4996368;28;20640;-71
2022/07/28 01:30:02;;;;;;;0.60;0.20;;;17.50;99.90;;;;;;4995859;28;20448;-71
2022/07/28 01:32:36;;;;;;;0.60;0.20;;;17.50;99.90;;;;;;4996570;28;20465;-71
2022/07/28 01:35:11;;;;;;;0.60;0.10;;;17.40;99.90;;;;;;4996034;28;20488;-71
2022/07/28 01:37:44;;;;;;;0.60;0.33;;;17.50;99.90;;;;;;4996075;28;20444;-71
2022/07/28 01:40:16;;;;;;;0.60;0.10;;;17.50;99.90;;;;;;4996330;28;20938;-71
2022/07/28 01:42:46;;;;;;;0.60;0.10;;;17.40;99.90;;;;;;4996352;28;20607;-70
2022/07/28 01:45:16;;;;;;;0.60;0.10;;;17.40;99.90;;;;;;4996283;28;20524;-71
2022/07/28 01:47:47;;;;;;;0.60;0.10;;;17.40;99.90;;;;;;4994394;28;20471;-70
2022/07/28 01:50:17;;;;;;;0.60;0.10;;;17.40;99.90;;;;;;4994733;28;20441;-70
2022/07/28 01:52:48;;;;;;;0.60;0.20;;;17.40;99.90;;;;;;4994538;28;20473;-71
2022/07/28 01:55:20;;;;;;;0.60;0.10;;;17.30;99.90;;;;;;4994940;28;20473;-71
2022/07/28 01:57:50;;;;;;;0.60;0.10;;;17.30;99.90;;;;;;4995743;28;20484;-71
2022/07/28 02:00:19;;;;;;;0.60;0.20;;;17.30;99.90;;;;;;4995838;28;20451;-71
2022/07/28 02:02:50;;;;;;;0.60;0.10;;;17.30;99.90;;;;;;4995644;28;20512;-72
2022/07/28 02:05:20;;;;;;;0.60;0.10;;;17.30;99.90;;;;;;4995882;28;20452;-72
2022/07/28 02:07:50;;;;;;;0.60;0.20;;;17.20;99.90;;;;;;4995984;28;20449;-70
2022/07/28 02:10:19;;;;;;;0.60;0.10;;;17.10;99.90;;;;;;4996034;28;20479;-71
2022/07/28 02:12:49;;;;;;;0.60;0.10;;;17.00;99.90;;;;;;4996337;28;20473;-71
2022/07/28 02:15:19;;;;;;;0.60;0.20;;;17.00;99.90;;;;;;4996395;28;20484;-71
2022/07/28 02:17:49;;;;;;;0.60;0.20;;;17.00;99.90;;;;;;4996955;28;20488;-70
2022/07/28 02:20:19;;;;;;;0.60;0.10;;;17.00;99.90;;;;;;4996642;28;20547;-71
2022/07/28 02:22:48;;;;;;;0.60;0.20;;;17.00;99.90;;;;;;5014750;23;20500;-73
2022/07/28 02:25:19;;;;;;;0.60;0.10;;;17.00;99.90;;;;;;4994746;28;20441;-74
2022/07/28 02:27:50;;;;;;;0.60;0.10;;;17.00;99.90;;;;;;4993790;28;20446;-73
2022/07/28 02:30:24;;;;;;;0.60;0.10;;;17.00;99.90;;;;;;4995187;28;20476;-72
2022/07/28 02:32:56;;;;;;;0.60;0.20;;;17.10;99.90;;;;;;4987695;28;20464;-72
2022/07/28 02:35:29;;;;;;;0.60;0.10;;;17.10;99.90;;;;;;4981380;28;20492;-72
2022/07/28 02:38:02;;;;;;;0.60;0.10;;;17.10;99.90;;;;;;4976072;28;20449;-72
2022/07/28 02:40:35;;;;;;;0.60;0.10;;;17.00;99.90;;;;;;4976224;28;20450;-73
2022/07/28 02:43:04;;;;;;;0.60;0.20;;;17.00;99.90;;;;;;4977288;28;20485;-73
2022/07/28 02:45:35;;;;;;;0.70;0.37;;;17.00;99.90;;;;;;4977280;28;20442;-73
2022/07/28 02:48:10;;;;;;;0.60;0.20;;;17.00;99.90;;;;;;4977147;28;20541;-73
2022/07/28 02:50:39;;;;;;;0.60;0.10;;;17.00;99.90;;;;;;4977875;28;20444;-72
2022/07/28 02:53:08;;;;;;;0.60;0.10;;;17.00;99.90;;;;;;4976570;28;20488;-72
2022/07/28 02:55:45;;;;;;;0.60;0.10;;;16.90;99.90;;;;;;4975246;28;20485;-73
2022/07/28 02:58:15;;;;;;;0.60;0.10;;;16.90;99.90;;;;;;4975108;28;20469;-74
2022/07/28 03:00:44;;;;;;;0.60;0.10;;;16.90;99.90;;;;;;4955923;28;20443;-74
2022/07/28 03:03:13;;;;;;;0.60;0.10;;;16.90;99.90;;;;;;4956079;28;20841;-74
2022/07/28 03:05:42;;;;;;;0.60;0.10;;;16.80;99.90;;;;;;4968257;28;20453;-72
2022/07/28 03:08:10;;;;;;;0.60;0.10;;;16.80;99.90;;;;;;4976655;28;20453;-72
2022/07/28 03:10:38;;;;;;;0.60;0.20;;;16.80;99.90;;;;;;4975180;28;21041;-73
2022/07/28 03:13:06;;;;;;;0.60;0.10;;;16.80;99.90;;;;;;4975363;28;20462;-73
2022/07/28 03:15:36;;;;;;;0.60;0.10;;;16.70;99.90;;;;;;4975577;28;20488;-72
2022/07/28 03:18:05;;;;;;;0.60;0.10;;;16.70;99.90;;;;;;4976940;28;20529;-72
2022/07/28 03:20:35;;;;;;;0.60;0.20;;;16.60;99.90;;;;;;4976742;28;20454;-72
2022/07/28 03:23:04;;;;;;;0.60;0.20;;;16.60;99.90;;;;;;4976023;28;20478;-72
2022/07/28 03:25:39;;;;;;;0.60;0.20;;;16.50;99.90;;;;;;4975506;28;20450;-73
2022/07/28 03:28:09;;;;;;;0.60;0.10;;;16.50;99.90;;;;;;4975393;28;20445;-72
2022/07/28 03:30:42;;;;;;;0.60;0.10;;;16.50;99.90;;;;;;4975399;28;20446;-71
2022/07/28 03:33:11;;;;;;;0.60;0.10;;;16.50;99.90;;;;;;4975069;28;20985;-73
2022/07/28 03:35:46;;;;;;;0.80;0.40;;;16.50;99.90;;;;;;4976852;28;20486;-72
2022/07/28 03:38:18;;;;;;;0.60;0.20;;;16.50;99.90;;;;;;4978143;28;20756;-72
2022/07/28 03:40:48;;;;;;;0.60;0.10;;;16.40;99.90;;;;;;4978930;28;20453;-72
2022/07/28 03:43:20;;;;;;;0.60;0.10;;;16.40;99.90;;;;;;4976864;28;20469;-72
2022/07/28 03:45:49;;;;;;;0.60;0.20;;;16.40;99.90;;;;;;4974734;28;20561;-72
2022/07/28 03:48:17;;;;;;;0.60;0.10;;;16.40;99.90;;;;;;4975078;28;20488;-73
2022/07/28 03:50:46;;;;;;;0.80;0.30;;;16.40;99.90;;;;;;4975362;28;20446;-72
2022/07/28 03:53:20;;;;;;;0.60;0.10;;;16.50;99.90;;;;;;4974399;28;20815;-73
2022/07/28 03:55:50;;;;;;;0.60;0.10;;;16.40;99.90;;;;;;4973644;28;20481;-73
2022/07/28 03:58:18;;;;;;;0.60;0.20;;;16.50;99.90;;;;;;4973284;28;20969;-72
2022/07/28 04:00:46;;;;;;;0.60;0.10;;;16.50;99.90;;;;;;4973949;28;20559;-72
2022/07/28 04:03:15;;;;;;;0.60;0.10;;;16.40;99.90;;;;;;4974487;28;20477;-73
2022/07/28 04:06:05;;;;;;;0.70;0.30;;;16.40;99.90;;;;;;4974093;28;20453;-73
2022/07/28 04:08:33;;;;;;;0.60;0.10;;;16.40;99.90;;;;;;4973655;28;20454;-72
2022/07/28 04:11:00;;;;;;;0.60;0.20;;;16.40;99.90;;;;;;4973930;28;20446;-72
2022/07/28 04:13:30;;;;;;;0.60;0.10;;;16.30;99.90;;;;;;4973419;28;21082;-72
2022/07/28 04:15:58;;;;;;;0.60;0.20;;;16.30;99.90;;;;;;4973728;28;20497;-72
2022/07/28 04:18:26;;;;;;;0.70;0.20;;;16.30;99.90;;;;;;4973546;28;20482;-72
2022/07/28 04:20:54;;;;;;;0.60;0.13;;;16.30;99.90;;;;;;4974364;28;20449;-72
2022/07/28 04:23:23;;;;;;;0.60;0.10;;;16.20;99.90;;;;;;4973339;28;20564;-73
2022/07/28 04:25:51;;;;;;;0.60;0.10;;;16.20;99.90;;;;;;4973184;28;20449;-72
2022/07/28 04:28:19;;;;;;;0.60;0.20;;;16.20;99.90;;;;;;4972857;28;20491;-72
2022/07/28 04:30:47;;;;;;;0.60;0.20;;;;;;;;;;4973250;28;20452;-71
2022/07/28 04:33:17;;;;;;;0.60;0.20;;;16.20;99.90;;;;;;4973346;28;20552;-72
2022/07/28 04:35:45;;;;;;;0.60;0.20;;;16.10;99.90;;;;;;4973035;28;20486;-72
2022/07/28 04:38:16;;;;;;;0.60;0.10;;;16.20;99.90;;;;;;4972891;28;20450;-72
2022/07/28 04:40:45;;;;;;;0.60;0.17;;;16.20;99.90;;;;;;4972950;28;20442;-72
2022/07/28 04:43:13;;;;;;;0.60;0.10;;;16.20;99.90;;;;;;4972814;28;20839;-72
2022/07/28 04:45:41;;;;;;;0.60;0.20;;;16.20;99.90;;;;;;4972559;28;20450;-72
2022/07/28 04:48:21;;;;;;;0.80;0.33;;;16.20;99.90;;;;;;4972836;28;20442;-72
2022/07/28 04:50:51;;;;;;;0.60;0.23;;;16.20;99.90;;;;;;4972143;28;20446;-73
2022/07/28 04:53:19;;;;;;;0.60;0.20;;;16.30;99.90;;;;;;4972529;28;20497;-72
2022/07/28 04:55:50;;;;;;;0.60;0.10;;;16.30;99.90;;;;;;4971142;28;20574;-72
2022/07/28 04:58:18;;;;;;;0.60;0.10;;;16.30;99.90;;;;;;4972235;28;20450;-72
2022/07/28 05:00:49;;;;;;;0.60;0.10;;;16.40;99.90;;;;;;4973031;28;20446;-72
2022/07/28 05:03:18;;;;;;;0.60;0.20;;;16.30;99.90;;;;;;4973055;28;20994;-72
2022/07/28 05:05:46;;;;;;;0.87;0.50;;;16.30;99.90;;;;;;4987251;28;20518;-72
2022/07/28 05:08:21;;;;;;;0.60;0.10;;;16.40;99.90;;;;;;4988351;28;20446;-73
2022/07/28 05:10:55;;;;;;;0.70;0.30;;;16.40;99.90;;;;;;4983401;28;21031;-72
2022/07/28 05:13:23;;;;;;;0.60;0.10;;;16.40;99.90;;;;;;4982018;28;20487;-72
2022/07/28 05:15:56;;;;;;;0.60;0.10;;;16.40;99.90;;;;;;4973871;28;20569;-72
2022/07/28 05:18:24;;;;;;;0.60;0.20;;;16.40;99.90;;;;;;4973816;28;20450;-72
2022/07/28 05:20:52;;;;;;;0.60;0.20;;;16.40;99.90;;;;;;4974119;28;20969;-73
2022/07/28 05:23:20;;;;;;;0.60;0.20;;;16.40;99.90;;;;;;4974305;28;20493;-72
2022/07/28 05:25:48;;;;;;;0.60;0.10;;;16.40;99.90;;;;;;4973840;28;20652;-73
2022/07/28 05:28:18;;;;;;;0.60;0.10;;;;;;;;;;4973129;28;20438;-73
2022/07/28 05:30:46;;;;;;;0.60;0.20;;;16.50;99.90;;;;;;4973293;28;20454;-74
2022/07/28 05:33:15;;;;;;;0.60;0.10;;;16.60;99.90;;;;;;4973298;28;20474;-74
2022/07/28 05:35:43;;;;;;;0.60;0.10;;;16.60;99.90;;;;;;4972407;28;20492;-75
2022/07/28 05:38:11;;;;;;;0.60;0.10;;;16.60;99.90;;;;;;4972292;28;20456;-72
2022/07/28 05:40:39;;;;;;;0.60;0.10;;;16.60;99.90;;;;;;4972784;28;20837;-73
2022/07/28 05:43:07;;;;;;;0.60;0.23;;;16.80;99.90;;;;;;4972586;28;20470;-72
2022/07/28 05:45:37;;;;;;;0.70;0.30;;;;;;;;;;4972492;28;20464;-72
2022/07/28 05:48:05;;;;;;;0.60;0.10;;;16.90;99.90;;;;;;4972129;28;20441;-72
2022/07/28 05:50:33;;;;;;;0.60;0.10;;;16.80;99.90;;;;;;4971625;28;20458;-75
2022/07/28 05:53:01;;;;;;;0.60;0.10;;;16.90;99.90;;;;;;4973112;28;20497;-75
2022/07/28 05:55:29;;;;;;;0.60;0.10;;;16.90;99.90;;;;;;4972688;28;20485;-74
2022/07/28 05:57:58;;;;;;;0.60;0.17;;;16.80;99.90;;;;;;4972630;28;20451;-74
2022/07/28 06:00:27;;;;;;;0.60;0.17;;;16.80;99.90;;;;;;4972051;28;20541;-73
2022/07/28 06:03:00;;;;;;;0.60;0.10;;;16.70;99.90;;;;;;4972725;28;20477;-74
2022/07/28 06:05:30;;;;;;;0.60;0.10;;;16.80;99.90;;;;;;4968228;28;20455;-75
2022/07/28 06:07:59;;;;;;;0.60;0.10;;;16.90;99.90;;;;;;4969496;28;20445;-74
2022/07/28 06:10:57;;;;;;;0.60;0.20;;;16.90;99.90;;;;;;4958968;28;20446;-73
2022/07/28 06:13:18;;;;;;;0.60;0.10;;;16.90;99.90;;;;;;4956735;28;20477;-74
2022/07/28 06:15:47;;;;;;;0.60;0.10;;;16.90;99.90;;;;;;4970848;28;20485;-74
2022/07/28 06:18:16;;;;;;;0.60;0.10;;;17.00;99.90;;;;;;4956912;28;20826;-73
2022/07/28 06:20:45;;;;;;;0.60;0.10;;;17.00;99.90;;;;;;4976733;28;20491;-75
2022/07/28 06:23:16;;;;;;;0.60;0.20;;;17.10;99.90;;;;;;4976901;28;20474;-75
2022/07/28 06:25:44;;;;;;;0.60;0.13;;;17.20;99.90;;;;;;4976093;28;20446;-75
2022/07/28 06:28:13;;;;;;;0.60;0.10;;;17.20;99.90;;;;;;4975501;28;20457;-76
2022/07/28 06:30:41;;;;;;;0.60;0.10;;;;;;;;;;4975373;28;20446;-75
2022/07/28 06:33:09;;;;;;;0.60;0.13;;;17.30;99.90;;;;;;4975652;28;20470;-76
2022/07/28 06:35:45;;;;;;;0.60;0.10;;;17.40;99.90;;;;;;4975069;28;20445;-76
2022/07/28 06:38:19;;;;;;;0.60;0.20;;;17.40;99.90;;;;;;4975390;28;20536;-76
2022/07/28 06:40:47;;;;;;;0.60;0.10;;;17.50;99.90;;;;;;4976035;28;21184;-77
2022/07/28 06:43:15;;;;;;;0.60;0.13;;;17.60;99.90;;;;;;4975801;28;20470;-75
2022/07/28 06:45:43;;;;;;;0.60;0.20;;;17.70;99.90;;;;;;4976038;28;20446;-76
2022/07/28 06:48:12;;;;;;;0.60;0.20;;;17.80;99.90;;;;;;4975428;28;20452;-74
2022/07/28 06:50:41;;;;;;;0.60;0.10;;;17.90;99.90;;;;;;4974823;28;20488;-74
2022/07/28 06:53:10;;;;;;;0.70;0.20;;;18.10;99.90;;;;;;4975652;28;20605;-75
2022/07/28 06:55:38;;;;;;;0.60;0.10;;;18.10;99.90;;;;;;4975443;28;20454;-75
2022/07/28 06:58:08;;;;;;;0.60;0.20;;;18.20;99.90;;;;;;4974223;28;20461;-75
2022/07/28 07:00:36;;;;;;;0.60;0.10;;;18.20;99.90;;;;;;4974654;28;20449;-74
2022/07/28 07:03:04;;;;;;;0.60;0.10;;;18.20;99.90;;;;;;4974838;28;20459;-76
2022/07/28 07:05:36;;;;;;;1.23;1.13;;;18.30;99.90;;;;;;4974492;28;20447;-74
2022/07/28 07:08:05;;;;;;;0.70;0.20;;;18.40;99.90;;;;;;4974681;28;20470;-75
2022/07/28 07:10:35;;;;;;;0.60;0.20;;;18.40;99.90;;;;;;4974550;28;20442;-74
2022/07/28 07:13:02;;;;;;;0.70;0.47;;;18.40;99.90;;;;;;4974202;28;20492;-75
2022/07/28 07:15:30;;;;;;;0.70;0.20;;;18.50;99.90;;;;;;4976203;28;20462;-74
2022/07/28 07:18:01;;;;;;;0.60;0.20;;;18.40;99.90;;;;;;4973967;28;20501;-73
2022/07/28 07:20:29;;;;;;;0.60;0.10;;;18.50;99.90;;;;;;4974735;28;20476;-74
2022/07/28 07:22:57;;;;;;;0.60;0.20;;;18.70;99.90;;;;;;4974430;28;20482;-75
2022/07/28 07:25:25;;;;;;;0.60;0.20;;;18.70;99.90;;;;;;4974157;28;20481;-75
2022/07/28 07:27:54;;;;;;;0.60;0.10;;;18.80;99.90;;;;;;4974063;28;20438;-75
2022/07/28 07:30:22;;;;;;;0.60;0.20;;;18.80;99.90;;;;;;4974054;28;20450;-74
2022/07/28 07:32:50;;;;;;;0.60;0.10;;;18.90;99.90;;;;;;4954927;28;20503;-74
2022/07/28 07:35:18;;;;;;;0.60;0.10;;;19.00;99.90;;;;;;4955085;28;20447;-74
2022/07/28 07:37:46;;;;;;;0.60;0.20;;;19.10;99.90;;;;;;4954985;28;20498;-74
2022/07/28 07:40:14;;;;;;;0.60;0.10;;;19.20;99.90;;;;;;4958966;28;20469;-74
2022/07/28 07:42:42;;;;;;;0.70;0.20;;;19.20;99.90;;;;;;4974732;28;20909;-74
2022/07/28 07:45:12;;;;;;;0.60;0.10;;;19.20;99.90;;;;;;4974000;28;20462;-75
2022/07/28 07:47:39;;;;;;;0.63;0.13;;;19.30;99.90;;;;;;4970059;28;20446;-73
2022/07/28 07:50:08;;;;;;;0.60;0.10;;;19.30;99.90;;;;;;4974828;28;20447;-75
2022/07/28 07:52:36;;;;;;;0.60;0.10;;;19.40;99.90;;;;;;4974026;28;20470;-74
2022/07/28 07:55:04;;;;;;;0.60;0.13;;;19.40;99.90;;;;;;4974496;28;20923;-74
2022/07/28 07:57:33;;;;;;;0.70;0.20;;;19.50;99.90;;;;;;4974594;28;20486;-77
2022/07/28 08:00:00;;;;;;;0.70;0.20;;;19.60;99.90;;;;;;4974499;28;20465;-74
2022/07/28 08:02:30;;;;;;;0.70;0.20;;;19.70;99.90;;;;;;4973606;28;20525;-73
2022/07/28 08:04:59;;;;;;;0.60;0.10;;;19.70;99.90;;;;;;4973801;28;20456;-74
2022/07/28 08:07:27;;;;;;;0.70;0.17;;;19.70;99.90;;;;;;4973589;28;20442;-75
2022/07/28 08:09:55;;;;;;;0.70;0.10;;;19.80;99.90;;;;;;4973945;28;20446;-74
2022/07/28 08:12:23;;;;;;;0.70;0.20;;;20.00;99.90;;;;;;4973189;28;20561;-73
2022/07/28 08:14:52;;;;;;;0.70;0.30;;;20.00;99.90;;;;;;4971305;28;20480;-74
2022/07/28 08:17:20;;;;;;;0.70;0.20;;;20.10;99.90;;;;;;4973391;28;20566;-75
2022/07/28 08:19:54;;;;;;;0.70;0.20;;;20.10;99.90;;;;;;4973400;28;20470;-74
2022/07/28 08:22:22;;;;;;;0.70;0.10;;;20.20;99.90;;;;;;4973105;28;20485;-75
2022/07/28 08:24:50;;;;;;;0.70;0.20;;;20.30;99.90;;;;;;4978170;28;20465;-74
2022/07/28 08:27:18;;;;;;;0.70;0.20;;;20.40;99.90;;;;;;4979321;28;20526;-73
2022/07/28 08:29:46;;;;;;;0.70;0.10;;;20.40;99.90;;;;;;4973006;28;20462;-74
2022/07/28 08:32:14;;;;;;;0.70;0.10;;;20.50;99.90;;;;;;4972434;28;20481;-72
2022/07/28 08:34:42;;;;;;;0.70;0.10;;;20.50;99.90;;;;;;4973658;28;20611;-75
2022/07/28 08:37:11;;;;;;;0.70;0.10;;;20.70;99.90;;;;;;4972599;28;20492;-74
2022/07/28 08:39:39;;;;;;;0.70;0.10;;;20.80;99.90;;;;;;4973131;28;20443;-73
2022/07/28 08:42:12;;;;;;;0.70;0.10;;;20.90;99.90;;;;;;4974461;28;20561;-73
2022/07/28 08:44:49;;;;;;;0.70;0.10;;;20.90;99.90;;;;;;4973050;28;20446;-75
2022/07/28 08:47:19;;;;;;;0.70;0.10;;;21.00;99.90;;;;;;4973234;28;20450;-74
2022/07/28 08:49:48;;;;;;;0.70;0.10;;;21.10;99.90;;;;;;4972483;28;20965;-74
2022/07/28 08:52:21;;;;;;;0.70;0.10;;;21.20;99.90;;;;;;4972713;28;20901;-73
2022/07/28 08:54:50;;;;;;;0.70;0.10;;;21.20;99.90;;;;;;4972778;28;20447;-71
2022/07/28 08:57:21;;;;;;;0.70;0.10;;;21.30;99.90;;;;;;4973381;28;20476;-73
2022/07/28 08:59:50;;;;;;;0.70;0.20;;;21.40;99.90;;;;;;4975780;28;20534;-72
2022/07/28 09:02:18;;;;;;;0.70;0.10;;;21.50;99.90;;;;;;4976718;28;20986;-72
2022/07/28 09:04:48;;;;;;;0.70;0.20;;;21.50;99.90;;;;;;4975747;28;20450;-74
2022/07/28 09:07:18;;;;;;;0.70;0.10;;;21.60;99.90;;;;;;4973208;28;20442;-72
2022/07/28 09:09:48;;;;;;;0.70;0.20;;;21.60;99.90;;;;;;4975476;28;20478;-71
2022/07/28 09:12:16;;;;;;;1.20;0.90;;;21.70;99.90;;;;;;4975335;28;20480;-72
2022/07/28 09:14:44;;;;;;;0.70;0.10;;;21.70;99.90;;;;;;4974511;28;20478;-70
2022/07/28 09:17:12;;;;;;;0.80;0.30;;;21.70;99.90;;;;;;4964507;28;20443;-72
2022/07/28 09:19:40;;;;;;;0.70;0.10;;;21.80;99.90;;;;;;4963964;28;20454;-71
2022/07/28 09:22:08;;;;;;;0.70;0.10;;;21.90;99.90;;;;;;4964445;28;20483;-71
2022/07/28 09:24:39;;;;;;;0.70;0.33;;;21.90;99.90;;;;;;4955207;28;20808;-71
2022/07/28 09:27:08;;;;;;;0.70;0.20;;;22.00;99.90;;;;;;4954508;28;20525;-70
2022/07/28 09:29:40;;;;;;;0.70;0.10;;;22.10;99.90;;;;;;4969565;28;20456;-70
2022/07/28 09:32:08;;;;;;;0.70;0.20;;;22.20;99.90;;;;;;4973935;28;20559;-68
2022/07/28 09:34:41;;;;;;;0.70;0.20;;;22.20;99.90;;;;;;4972431;28;20461;-74
2022/07/28 09:37:18;;;;;;;0.70;0.13;;;22.30;99.90;;;;;;4972311;28;20439;-70
2022/07/28 09:39:57;;;;;;;0.70;0.10;;;22.50;99.90;;;;;;4973142;28;20451;-69
2022/07/28 09:42:28;;;;;;;0.70;0.10;;;22.60;99.90;;;;;;4967744;28;20918;-72
2022/07/28 09:45:05;;;;;;;0.70;0.20;;;22.70;99.90;;;;;;4965448;28;20444;-70
2022/07/28 09:48:07;;;;;;;0.70;0.20;;;22.90;99.90;;;;;;4967378;28;20450;-70
2022/07/28 09:50:36;;;;;;;0.70;0.10;;;22.90;99.90;;;;;;4965744;28;20454;-72
2022/07/28 09:53:23;;;;;;;0.70;0.20;;;23.10;99.90;;;;;;4966476;28;20458;-72
2022/07/28 09:55:58;;;;;;;0.70;0.37;;;23.10;99.90;;;;;;4967350;28;20450;-71
2022/07/28 09:58:26;;;;;;;0.70;0.20;;;23.20;99.90;;;;;;4967120;28;20853;-71
2022/07/28 10:01:04;;;;;;;0.70;0.20;;;23.30;99.90;;;;;;4968167;28;20467;-71
2022/07/28 10:03:34;;;;;;;0.70;0.20;;;23.40;99.90;;;;;;4964787;28;20498;-71
2022/07/28 10:06:07;;;;;;;0.70;0.17;;;23.50;99.90;;;;;;4966837;28;20454;-72
2022/07/28 10:08:42;;;;;;;0.70;0.10;;;23.60;99.90;;;;;;4961206;28;20475;-71
2022/07/28 10:11:14;;;;;;;0.70;0.20;;;23.70;99.90;;;;;;4964027;28;20445;-71
2022/07/28 10:13:53;;;;;;;0.70;0.10;;;23.80;99.90;;;;;;4974989;28;20572;-70
2022/07/28 10:16:23;;;;;;;0.70;0.10;;;23.90;99.90;;;;;;4975559;28;20450;-70
2022/07/28 10:18:51;;;;;;;0.70;0.13;;;23.90;99.90;;;;;;4966159;28;20478;-71
2022/07/28 10:21:20;;;;;;;0.70;0.20;;;24.00;99.90;;;;;;4957056;28;20486;-71
2022/07/28 10:23:51;;;;;;;0.70;0.20;;;24.20;99.90;;;;;;4961804;28;20486;-70
2022/07/28 10:26:24;;;;;;;0.70;0.20;;;24.30;99.90;;;;;;4975737;28;20533;-70
2022/07/28 10:28:54;;;;;;;0.70;0.20;;;24.40;99.90;;;;;;4974767;28;20493;-71
2022/07/28 10:31:43;;;;;;;0.70;0.20;;;24.60;99.90;;;;;;4975272;28;20449;-72
2022/07/28 10:34:20;;;;;;;0.70;0.20;;;24.60;99.90;;;;;;4977900;28;20536;-71
2022/07/28 10:36:55;;;;;;;0.70;0.20;;;24.70;99.90;;;;;;4977355;28;20461;-71
2022/07/28 10:39:27;;;;;;;0.70;0.13;;;24.90;99.90;;;;;;4976820;28;20491;-71
2022/07/28 10:41:57;;;;;;;0.70;0.17;;;25.00;99.90;;;;;;4956606;28;20494;-71
2022/07/28 10:44:26;;;;;;;0.70;0.20;;;25.00;99.90;;;;;;4970798;28;20454;-71
2022/07/28 10:46:54;;;;;;;0.70;0.20;;;25.10;99.90;;;;;;4975328;28;20446;-71
2022/07/28 10:49:23;;;;;;;0.70;0.20;;;25.10;99.90;;;;;;4975342;28;20480;-71
2022/07/28 10:51:59;;;;;;;0.70;0.20;;;25.20;99.90;;;;;;4974740;28;20559;-72
2022/07/28 10:54:46;;;;;;;0.70;0.10;;;25.20;99.90;;;;;;4974768;28;20502;-71
2022/07/28 10:57:17;;;;;;;0.70;0.20;;;25.20;99.90;;;;;;4975390;28;20791;-72
2022/07/28 11:00:16;;;;;;;0.70;0.17;;;25.30;99.90;;;;;;4971800;28;20485;-71
2022/07/28 11:02:57;;;;;;;0.70;0.10;;;25.30;99.90;;;;;;4936291;28;20931;-72
2022/07/28 11:05:33;;;;;;;0.70;0.20;;;25.30;99.90;;;;;;4972655;28;20509;-71
2022/07/28 11:08:04;;;;;;;0.70;0.20;;;25.40;99.90;;;;;;4968838;28;20958;-71
2022/07/28 11:10:46;;;;;;;0.70;0.20;;;25.50;99.90;;;;;;4964821;28;20799;-73
2022/07/28 11:13:30;;;;;;;0.70;0.10;;;25.60;99.90;;;;;;4963331;28;20471;-72
2022/07/28 11:16:20;;;;;;;0.70;0.10;;;25.70;99.90;;;;;;4965629;28;20944;-72
2022/07/28 11:19:05;;;;;;;0.80;0.23;;;25.90;99.90;;;;;;4969591;28;20878;-71
2022/07/28 11:22:29;;;;;;;0.70;0.10;;;25.90;99.90;;;;;;4970836;28;20818;-71
2022/07/28 11:25:16;;;;;;;0.70;0.20;;;25.90;99.90;;;;;;4970261;28;20505;-72
2022/07/28 11:28:04;;;;;;;0.70;0.20;;;25.90;99.90;;;;;;4973784;28;20450;-73
2022/07/28 11:30:56;;;;;;;0.70;0.20;;;25.90;99.90;;;;;;4974304;28;20438;-73
2022/07/28 11:33:26;;;;;;;0.70;0.20;;;26.10;99.90;;;;;;4972787;28;20477;-73
2022/07/28 11:35:59;;;;;;;5.07;0.97;;;26.10;99.90;;;;;;4974079;28;20449;-70
2022/07/28 11:38:41;;;;;;;0.70;0.20;;;26.20;99.90;;;;;;4973909;28;20485;-74
2022/07/28 11:41:28;;;;;;;0.70;0.20;;;26.20;99.90;;;;;;4973647;28;20465;-72
2022/07/28 11:43:57;;;;;;;0.70;0.20;;;26.20;99.90;;;;;;4967764;28;20950;-72
2022/07/28 11:46:27;;;;;;;0.70;0.17;;;26.20;99.90;;;;;;4973675;28;21260;-71
2022/07/28 11:49:16;;;;;;;0.70;0.20;;;26.30;99.90;;;;;;4974108;28;20542;-73
2022/07/28 11:52:16;;;;;;;0.70;0.20;;;26.20;99.90;;;;;;4974021;28;20450;-74
2022/07/28 11:54:54;;;;;;;0.70;0.10;;;26.30;99.90;;;;;;4974558;28;20829;-73
2022/07/28 11:57:24;;;;;;;0.70;0.10;;;26.30;99.90;;;;;;4974502;28;20442;-74
2022/07/28 12:00:00;;;;;;;0.70;0.10;;;26.40;99.90;;;;;;4968550;28;20483;-75
2022/07/28 12:02:31;;;;;;;0.70;0.20;;;26.60;99.90;;;;;;4954861;28;21098;-74
2022/07/28 12:05:12;;;;;;;0.70;0.10;;;26.60;99.90;;;;;;4956675;28;21022;-75
2022/07/28 12:07:46;;;;;;;0.70;0.20;;;26.60;99.90;;;;;;4973670;28;20508;-73
2022/07/28 12:10:32;;;;;;;0.70;0.10;;;26.50;99.90;;;;;;4973748;28;20461;-73
2022/07/28 12:13:26;;;;;;;0.70;0.10;;;26.50;99.90;;;;;;4973385;28;20553;-75
2022/07/28 12:15:54;;;;;;;0.70;0.20;;;26.50;99.90;;;;;;4974858;28;20456;-75
2022/07/28 12:18:23;;;;;;;0.70;0.10;;;26.40;99.90;;;;;;4975701;28;20446;-75
2022/07/28 12:20:53;;;;;;;0.70;0.20;;;26.40;99.90;;;;;;4974063;28;20482;-75
2022/07/28 12:23:30;;;;;;;0.70;0.10;;;26.40;99.90;;;;;;4972946;28;20474;-75
2022/07/28 12:26:12;;;;;;;0.70;0.20;;;26.30;99.90;;;;;;4954652;28;20447;-74
2022/07/28 12:28:50;;;;;;;1.00;0.20;;;26.30;99.90;;;;;;4963024;28;20939;-74
2022/07/28 12:31:18;;;;;;;0.70;0.20;;;26.40;99.90;;;;;;4973011;28;20485;-74
2022/07/28 12:33:51;;;;;;;0.70;0.20;;;26.40;99.90;;;;;;4973094;28;20466;-74
2022/07/28 12:36:22;;;;;;;0.70;0.10;;;26.40;99.90;;;;;;4972327;28;20480;-73
2022/07/28 12:38:52;;;;;;;0.70;0.20;;;26.50;99.90;;;;;;4973091;28;20453;-73
2022/07/28 12:41:20;;;;;;;0.70;0.20;;;26.60;99.90;;;;;;4972802;28;20450;-75
2022/07/28 12:43:52;;;;;;;0.70;0.20;;;26.60;99.90;;;;;;4973012;28;20553;-75
2022/07/28 12:46:21;;;;;;;0.70;0.10;;;26.60;99.90;;;;;;4972879;28;20446;-75
2022/07/28 12:48:55;;;;;;;0.70;0.10;;;26.70;99.90;;;;;;4972845;28;20477;-74
2022/07/28 12:51:33;;;;;;;0.70;0.10;;;26.70;99.90;;;;;;4972618;28;20962;-74
2022/07/28 12:54:02;;;;;;;0.70;0.20;;;26.70;99.90;;;;;;4972663;28;20442;-74
2022/07/28 12:56:30;;;;;;;1.00;0.50;;;26.70;99.90;;;;;;4972739;28;20474;-74
2022/07/28 12:59:08;;;;;;;0.70;0.20;;;26.80;99.90;;;;;;4972408;28;20435;-73
2022/07/28 13:01:48;;;;;;;0.70;0.20;;;26.90;99.90;;;;;;4972155;28;20442;-74
2022/07/28 13:04:36;;;;;;;0.70;0.10;;;26.90;99.90;;;;;;4971919;28;20560;-74
2022/07/28 13:07:08;;;;;;;0.70;0.17;;;26.90;99.90;;;;;;4972907;28;20473;-75
2022/07/28 13:09:38;;;;;;;0.70;0.17;;;26.90;99.90;;;;;;4974374;28;20457;-75
2022/07/28 13:12:15;;;;;;;0.70;0.20;;;27.20;99.90;;;;;;4973353;28;20564;-75